Home > Products > Valid Products > TAF

000
FTUS44 KLCH 211100
TAFLFT
TAF
KLFT 211137Z 2112/2212 03004KT 4SM BR SCT003 OVC009
      TEMPO 2112/2114 1SM BR OVC003
     FM211500 05004KT P6SM BKN015
     FM211800 04003KT P6SM SCT025 BKN080
     FM220600 16003KT 5SM BR BKN015
     FM220900 18003KT 2SM BR OVC007=



000
FTUS44 KLCH 211100
TAFLCH
TAF
KLCH 211137Z 2112/2212 04005KT P6SM BKN009
     FM211500 05005KT P6SM BKN015
     FM211800 06005KT P6SM SCT025 BKN080
     FM220600 16003KT 5SM BR BKN015
     FM220900 18003KT 2SM BR OVC007=



000
FTUS44 KLCH 211100
TAFBPT
TAF
KBPT 211137Z 2112/2212 02006KT P6SM BKN020
     FM211800 04003KT P6SM SCT035 BKN080
     FM220600 16003KT 5SM BR BKN015
     FM220900 18003KT 2SM BR OVC007=



000
FTUS44 KLCH 211100
TAFAEX
TAF
KAEX 211137Z 2112/2212 00000KT 4SM BR SCT015
      TEMPO 2112/2114 1SM BR
     FM211500 VRB03KT P6SM BKN020
     FM211800 11004KT P6SM SCT035 BKN080
     FM220900 16004KT 4SM BR BKN012=



000
FTUS44 KLCH 211100
TAFARA
TAF
KARA 211137Z 2112/2212 03004KT 4SM BR OVC003
      TEMPO 2112/2114 1SM BR VV001
     FM211500 05004KT P6SM BKN015
     FM211800 04003KT P6SM SCT025 BKN080
     FM220600 16003KT 5SM BR BKN015
     FM220900 18003KT 2SM BR OVC007=



000
FTUS44 KLCH 211000 AAB
TAFLFT
TAF AMD
KLFT 211007Z 2110/2206 00000KT 4SM BR OVC004
     FM211500 08006KT P6SM SCT025 BKN035=



000
FTUS44 KLCH 211000 AAB
TAFARA
TAF AMD
KARA 211007Z 2110/2206 04008KT P6SM OVC004
      TEMPO 2110/2113 4SM BR
     FM211500 08006KT P6SM SCT025 BKN035=



000
FTUS44 KLCH 211000 AAB
TAFLFT
TAF AMD
KLFT 211007Z 2110/2206 00000KT 4SM BR OVC004
     FM211500 08006KT P6SM SCT025 BKN035=



000
FTUS44 KLCH 211000 AAB
TAFARA
TAF AMD
KARA 211007Z 2110/2206 04008KT P6SM OVC004
      TEMPO 2110/2113 4SM BR
     FM211500 08006KT P6SM SCT025 BKN035=



000
FTUS44 KLCH 210800 AAA
TAFAEX
TAF AMD
KAEX 210838Z 2109/2206 00000KT 4SM BR SKC
      TEMPO 2109/2113 1SM BR
     FM211500 VRB03KT P6SM SCT035=



000
FTUS44 KLCH 210700 AAA
TAFLFT
TAF AMD
KLFT 210736Z 2108/2206 00000KT 5SM BR OVC008
     FM211500 08006KT P6SM SCT025 BKN035=



000
FTUS44 KLCH 210600 AAA
TAFARA
TAF AMD
KARA 210659Z 2107/2206 04008KT P6SM OVC008
     FM211500 08006KT P6SM SCT025 BKN035=



000
FTUS44 KLCH 210500
TAFARA
TAF
KARA 210520Z 2106/2206 07006KT P6SM SCT007 OVC035
      TEMPO 2110/2114 BKN015
     FM211500 08006KT P6SM SCT025 BKN035=



000
FTUS44 KLCH 210500
TAFAEX
TAF
KAEX 210520Z 2106/2206 00000KT 4SM BR SKC
      TEMPO 2110/2114 1SM BR
     FM211500 VRB03KT P6SM SCT035=



000
FTUS44 KLCH 210500
TAFLCH
TAF
KLCH 210520Z 2106/2206 01007KT P6SM SKC
      TEMPO 2110/2114 BKN015
     FM211500 09005KT P6SM SCT035=



000
FTUS44 KLCH 210500
TAFLFT
TAF
KLFT 210520Z 2106/2206 00000KT 6SM BR SKC
      TEMPO 2110/2114 BKN015
     FM211500 08006KT P6SM SCT025 BKN035=



000
FTUS44 KLCH 210500
TAFBPT
TAF
KBPT 210520Z 2106/2206 03007KT P6SM SKC
      TEMPO 2110/2114 BKN015
     FM211500 09006KT P6SM SCT035=



000
FTUS44 KLCH 210000 AAA
TAFARA
TAF AMD
KARA 210030Z 2101/2124 05007KT P6SM SCT015
     FM210600 04004KT P6SM SCT015
      TEMPO 2110/2114 BKN015
     FM211500 08008KT P6SM OVC025=



000
FTUS44 KLCH 210000 AAA
TAFLFT
TAF AMD
KLFT 210029Z 2100/2124 04008KT P6SM SKC
     FM210600 04004KT P6SM SCT015
      TEMPO 2110/2114 BKN015
     FM211500 08006KT P6SM SCT025 BKN035=



000
FTUS44 KLCH 202300
TAFARA
TAF
KARA 202320Z 2100/2124 04012KT P6SM OVC008
      TEMPO 2102/2106 SCT008 OVC015
     FM210600 06008KT P6SM SCT015 BKN025
     FM211500 08008KT P6SM OVC025=



000
FTUS44 KLCH 202300
TAFLFT
TAF
KLFT 202320Z 2100/2124 04008KT P6SM OVC012
      TEMPO 2102/2106 SCT012 OVC025
     FM210600 06004KT P6SM SCT015 BKN025
     FM211500 08006KT P6SM SCT025 BKN035=



000
FTUS44 KLCH 202300
TAFAEX
TAF
KAEX 202320Z 2100/2124 02005KT P6SM SKC
     FM210600 00000KT 4SM BR SCT015
      TEMPO 2110/2114 2SM BR
     FM211500 VRB03KT P6SM SCT035=



000
FTUS44 KLCH 202300
TAFBPT
TAF
KBPT 202320Z 2100/2124 35008KT P6SM SKC
     FM210600 04004KT P6SM SCT015
      TEMPO 2110/2114 BKN015
     FM211500 09006KT P6SM SCT035=



000
FTUS44 KLCH 202300
TAFLCH
TAF
KLCH 202320Z 2100/2124 35008KT P6SM SKC
     FM210600 04004KT P6SM SCT015
      TEMPO 2110/2114 BKN015
     FM211500 09005KT P6SM SCT035=



000
FTUS44 KLCH 202100 AAA
TAFBPT
TAF AMD
KBPT 202129Z 2021/2118 35009KT P6SM SCT020 SCT250
     FM210100 02005KT P6SM SCT020=



000
FTUS44 KLCH 201900 AAA
TAFLCH
TAF AMD
KLCH 201949Z 2020/2118 02010KT P6SM SCT015
     FM210000 03005KT P6SM SCT025=



000
FTUS44 KLCH 201700
TAFLFT
TAF
KLFT 201732Z 2018/2118 02010KT 5SM BR OVC004
     FM202100 02009KT P6SM OVC008
     FM210200 02004KT P6SM SCT008 BKN015=



000
FTUS44 KLCH 201700
TAFAEX
TAF
KAEX 201732Z 2018/2118 01009KT P6SM BKN012
      TEMPO 2018/2020 SCT015
     FM202000 02006KT P6SM SCT025
     FM210500 03003KT 4SM BR SCT015
     FM211400 06003KT P6SM SCT025=



000
FTUS44 KLCH 201700
TAFARA
TAF
KARA 201732Z 2018/2118 02011KT P6SM OVC005
     FM202100 02009KT P6SM OVC008
     FM210200 02005KT P6SM SCT008 BKN015=



000
FTUS44 KLCH 201700
TAFBPT
TAF
KBPT 201732Z 2018/2118 02010KT P6SM OVC007
     FM202100 03009KT P6SM SCT008 BKN015
     FM210300 02005KT P6SM SCT020=



000
FTUS44 KLCH 201700
TAFLCH
TAF
KLCH 201732Z 2018/2118 03010KT P6SM BKN008
     FM202000 04009KT P6SM SCT012 BKN020
     FM210000 03005KT P6SM SCT020=



000
FTUS44 KLCH 201500 AAB
TAFLCH
TAF AMD
KLCH 201510Z 2015/2112 03011KT P6SM OVC005
     FM201800 04011KT P6SM BKN015
     FM202100 04009KT P6SM SCT050=



000
FTUS44 KLCH 201500 AAC
TAFBPT
TAF AMD
KBPT 201509Z 2015/2112 02009KT P6SM OVC007
     FM201800 03011KT P6SM BKN015
     FM202100 03009KT P6SM SCT050=



000
FTUS44 KLCH 201500 AAB
TAFAEX
TAF AMD
KAEX 201508Z 2015/2112 02009KT P6SM OVC007
      TEMPO 2016/2018 BKN008 OVC015
     FM201800 04007KT P6SM BKN015
     FM202100 03006KT P6SM SCT035=



000
FTUS44 KLCH 201500 AAC
TAFLFT
TAF AMD
KLFT 201506Z 2015/2112 02009KT P6SM OVC004
      TEMPO 2016/2018 BKN005 OVC015
     FM201800 03011KT P6SM BKN015
     FM202200 03008KT P6SM SCT035=



000
FTUS44 KLCH 201500 AAB
TAFARA
TAF AMD
KARA 201505Z 2015/2112 02010KT P6SM OVC005
      TEMPO 2016/2018 BKN005 OVC015
     FM201800 03011KT P6SM BKN015
     FM202200 03009KT P6SM SCT035=



000
FTUS44 KLCH 201300 AAA
TAFARA
TAF AMD
KARA 201320Z 2013/2112 02012KT P6SM OVC007
     FM201500 03012KT P6SM OVC012
     FM201800 03011KT P6SM BKN025
     FM202200 03009KT P6SM SCT050=



000
FTUS44 KLCH 201300 AAB
TAFLFT
TAF AMD
KLFT 201319Z 2013/2112 02011KT P6SM OVC005
     FM201500 03011KT P6SM OVC012
     FM201800 03011KT P6SM BKN025
     FM202200 03008KT P6SM SCT050=



000
FTUS44 KLCH 201300 AAA
TAFAEX
TAF AMD
KAEX 201318Z 2013/2112 04007KT P6SM OVC008
     FM201500 04007KT P6SM OVC012
     FM201800 04007KT P6SM BKN025
     FM202100 03006KT P6SM SCT050=



000
FTUS44 KLCH 201300 AAB
TAFBPT
TAF AMD
KBPT 201317Z 2013/2112 02010KT 3SM BR OVC005
     FM201500 03011KT P6SM BKN012
     FM201800 03011KT P6SM BKN025
     FM202100 03009KT P6SM SCT050=



000
FTUS44 KLCH 201300 AAA
TAFLCH
TAF AMD
KLCH 201315Z 2013/2112 03010KT 5SM BR OVC005
     FM201500 04011KT P6SM OVC012
     FM201800 04011KT P6SM BKN025
     FM202100 04009KT P6SM SCT050=



000
FTUS44 KLCH 201200 AAA
TAFBPT
TAF AMD
KBPT 201227Z 2012/2112 02010KT 3SM BR OVC007
     FM201500 03011KT P6SM OVC025
     FM202000 03009KT P6SM SCT050=



000
FTUS44 KLCH 201200 AAA
TAFLFT
TAF AMD
KLFT 201217Z 2012/2112 02011KT P6SM OVC007
     FM201500 03011KT P6SM OVC025
     FM202200 03008KT P6SM SCT050=



000
FTUS44 KLCH 201100
TAFBPT
TAF
KBPT 201124Z 2012/2112 02010KT P6SM OVC007
     FM201500 03011KT P6SM OVC025
     FM202000 03009KT P6SM SCT050=



000
FTUS44 KLCH 201100
TAFARA
TAF
KARA 201124Z 2012/2112 02012KT 5SM BR OVC005
     FM201500 03012KT P6SM OVC025
     FM202200 03009KT P6SM SCT050=



000
FTUS44 KLCH 201100
TAFLFT
TAF
KLFT 201124Z 2012/2112 02011KT 5SM BR OVC005
     FM201500 03011KT P6SM OVC025
     FM202200 03008KT P6SM SCT050=



000
FTUS44 KLCH 201100
TAFAEX
TAF
KAEX 201124Z 2012/2112 04007KT P6SM OVC007
     FM201500 04007KT P6SM OVC025
     FM202000 03006KT P6SM SCT050=



000
FTUS44 KLCH 201100
TAFLCH
TAF
KLCH 201124Z 2012/2112 03010KT P6SM OVC007
     FM201500 04011KT P6SM OVC025
     FM202100 04009KT P6SM SCT050=



000
FTUS44 KLCH 200900 AAA
TAFLCH
TAF AMD
KLCH 200959Z 2010/2106 06010KT P6SM OVC006
     FM201500 03011KT P6SM OVC025
     FM202100 01008KT P6SM SCT050=



000
FTUS44 KLCH 200900 AAC
TAFARA
TAF AMD
KARA 200957Z 2010/2106 01012KT 3SM BR OVC004
     FM201500 03012KT P6SM OVC025
     FM202200 01010KT P6SM SCT050=



000
FTUS44 KLCH 200800 AAA
TAFLFT
TAF AMD
KLFT 200825Z 2008/2106 02012KT P6SM OVC004
     FM201500 03012KT P6SM OVC025
     FM202200 01009KT P6SM SCT050=



000
FTUS44 KLCH 200800 AAB
TAFARA
TAF AMD
KARA 200825Z 2008/2106 02012KT P6SM OVC004
     FM201500 03012KT P6SM OVC025
     FM202200 01010KT P6SM SCT050=



000
FTUS44 KLCH 200600 AAA
TAFARA
TAF AMD
KARA 200637Z 2007/2106 02012KT P6SM OVC006
     FM201500 03012KT P6SM OVC025
     FM202200 01010KT P6SM SCT050=



000
FTUS44 KLCH 200500
TAFLFT
TAF
KLFT 200520Z 2006/2106 06009KT P6SM VCSH OVC005
     FM201500 03012KT P6SM OVC025
     FM202200 01009KT P6SM SCT050=



000
FTUS44 KLCH 200500
TAFARA
TAF
KARA 200520Z 2006/2106 06010KT P6SM OVC006
     FM201500 03012KT P6SM OVC025
     FM202200 01010KT P6SM SCT050=



000
FTUS44 KLCH 200500
TAFBPT
TAF
KBPT 200520Z 2006/2106 01012KT P6SM OVC003
     FM201500 03012KT P6SM OVC025
     FM202000 01009KT P6SM SCT050=



000
FTUS44 KLCH 200500
TAFLCH
TAF
KLCH 200520Z 2006/2106 06010KT P6SM OVC005
     FM201500 03011KT P6SM OVC025
     FM202100 01008KT P6SM SCT050=



000
FTUS44 KLCH 200500
TAFAEX
TAF
KAEX 200520Z 2006/2106 03006KT P6SM OVC006
     FM201500 03008KT P6SM OVC025
     FM202000 03006KT P6SM SCT050=



000
FTUS44 KLCH 200300 AAA
TAFARA
TAF AMD
KARA 200320Z 2003/2024 04010KT 6SM -RA OVC006
      TEMPO 2003/2006 3SM BR OVC004
     FM200600 02012KT 3SM BR OVC004
     FM201500 03012KT P6SM OVC025=



000
FTUS44 KLCH 200300 AAA
TAFLFT
TAF AMD
KLFT 200319Z 2003/2024 05007KT P6SM -RA OVC006
      TEMPO 2003/2006 3SM BR OVC004
     FM200600 02012KT 3SM BR OVC004
     FM201500 03012KT P6SM OVC025=



000
FTUS44 KLCH 200300 AAA
TAFLFT
TAF AMD
KLFT 200319Z 2003/2024 05007KT P6SM -RA OVC006
      TEMPO 2003/2006 3SM BR OVC004
     FM200600 02012KT 3SM BR OVC004
     FM201500 03012KT P6SM OVC025=



000
FTUS44 KLCH 200300 AAA
TAFLCH
TAF AMD
KLCH 200318Z 2003/2024 05010KT P6SM OVC008
      TEMPO 2003/2006 3SM BR OVC004
     FM200600 02012KT 3SM BR OVC004
     FM201500 03011KT P6SM OVC025=



000
FTUS44 KLCH 200300 AAA
TAFBPT
TAF AMD
KBPT 200315Z 2003/2024 36013KT P6SM OVC004
     FM201500 03012KT P6SM OVC025=



000
FTUS44 KLCH 200300 AAA
TAFAEX
TAF AMD
KAEX 200314Z 2003/2024 02006KT P6SM OVC006
      TEMPO 2003/2006 3SM BR OVC004
     FM200600 02010KT 3SM BR OVC004
     FM201500 03008KT P6SM OVC025=



000
FTUS44 KLCH 200300 AAA
TAFAEX
TAF AMD
KAEX 200314Z 2003/2024 02006KT P6SM OVC006
      TEMPO 2003/2006 3SM BR OVC004
     FM200600 02010KT 3SM BR OVC004
     FM201500 03008KT P6SM OVC025=



000
FTUS44 KLCH 192300
TAFBPT
TAF
KBPT 192320Z 2000/2024 03012KT 6SM -RA OVC008
      TEMPO 2002/2006 3SM BR OVC004
     FM200600 02013KT 3SM BR OVC004
     FM201500 03012KT P6SM OVC025=



000
FTUS44 KLCH 192300
TAFLCH
TAF
KLCH 192320Z 2000/2024 03012KT 6SM -RA OVC008
      TEMPO 2002/2006 3SM BR OVC004
     FM200600 02012KT 3SM BR OVC004
     FM201500 03011KT P6SM OVC025=



000
FTUS44 KLCH 192300
TAFAEX
TAF
KAEX 192320Z 2000/2024 05008KT 6SM -RA OVC008
      TEMPO 2002/2006 3SM BR OVC004
     FM200600 02010KT 3SM BR OVC004
     FM201500 03008KT P6SM OVC025=



000
FTUS44 KLCH 192300
TAFLFT
TAF
KLFT 192320Z 2000/2024 04010KT 6SM -RA OVC008
      TEMPO 2002/2006 3SM BR OVC004
     FM200600 02012KT 3SM BR OVC004
     FM201500 03012KT P6SM OVC025=



000
FTUS44 KLCH 192300
TAFARA
TAF
KARA 192320Z 2000/2024 04010KT 6SM -RA OVC008
      TEMPO 2002/2006 3SM BR OVC004
     FM200600 02012KT 3SM BR OVC004
     FM201500 03012KT P6SM OVC025=



000
FTUS44 KLCH 192100 AAA
TAFLFT
TAF AMD
KLFT 192132Z 1922/2018 06006KT 6SM -RA BR OVC007
      TEMPO 1922/1924 3SM RA BR OVC007
     FM200200 03009KT 4SM -RA BR OVC007
     FM200600 03006KT 4SM BR OVC004=



000
FTUS44 KLCH 192100 AAA
TAFARA
TAF AMD
KARA 192131Z 1922/2018 06006KT 6SM -RA BR OVC007
      TEMPO 1922/1924 3SM RA BR OVC007
     FM200200 03009KT 4SM -RA BR OVC007
     FM200600 03006KT 4SM BR OVC004=



000
FTUS44 KLCH 191700
TAFARA
TAF
KARA 191730Z 1918/2018 09010KT P6SM VCSH SCT008 SCT030 OVC080
      TEMPO 1918/1921 4SM RA BR OVC007
     FM192100 06006KT 6SM -RA BR OVC007
     FM200200 03009KT 4SM -RA BR OVC007
     FM200600 03006KT 4SM BR OVC004=



000
FTUS44 KLCH 191700
TAFLFT
TAF
KLFT 191730Z 1918/2018 09005KT P6SM VCSH BKN008 OVC040
      TEMPO 1918/1921 4SM RA BR OVC007
     FM192100 06006KT 6SM -RA BR OVC007
     FM200200 03009KT 4SM -RA BR OVC007
     FM200600 03006KT 4SM BR OVC004=



000
FTUS44 KLCH 191700
TAFAEX
TAF
KAEX 191730Z 1918/2018 08009KT 5SM -RA BR OVC007
      TEMPO 1918/1922 3SM RA BR
     FM192200 04008KT 4SM -RA BR OVC005
     FM200300 02007KT 4SM BR OVC004=



000
FTUS44 KLCH 191700
TAFLCH
TAF
KLCH 191730Z 1918/2018 04010KT P6SM VCSH OVC005
      TEMPO 1918/1921 4SM RA BR
     FM192100 04009KT 6SM -RA OVC005
     FM200000 03010KT 4SM -RA BR OVC005
     FM200300 03009KT 4SM BR OVC004=



000
FTUS44 KLCH 191700
TAFBPT
TAF
KBPT 191730Z 1918/2018 04011KT 6SM -RA BR BKN005 OVC050
      TEMPO 1918/1921 4SM RA BR OVC005
     FM192100 03010KT 6SM -RA BR BKN005 OVC040
     FM200100 01010KT 4SM BR OVC004=



000
FTUS44 KLCH 191600 AAA
TAFLFT
TAF AMD
KLFT 191612Z 1916/2012 08007KT P6SM -RA VCTS SCT008CB BKN060 OVC110
      TEMPO 1916/1919 3SM RA BR OVC007
     FM191900 05006KT 5SM -RA BR OVC007
     FM200300 05005KT 4SM BR VCSH OVC007
     FM200600 03006KT 4SM BR OVC004=



000
FTUS44 KLCH 191600 AAA
TAFLCH
TAF AMD
KLCH 191608Z 1916/2012 04009KT P6SM -RA VCTS OVC005CB
      TEMPO 1916/1918 3SM RA BR OVC005
     FM191800 03008KT 5SM -RA BR OVC005
     FM200000 03007KT 4SM BR VCSH OVC007
     FM200300 03008KT 4SM BR OVC004=



000
FTUS44 KLCH 191600 AAA
TAFLCH
TAF AMD
KLCH 191608Z 1916/2012 04009KT P6SM -RA VCTS OVC005CB
      TEMPO 1916/1918 3SM RA BR OVC005
     FM191800 03008KT 5SM -RA BR OVC005
     FM200000 03007KT 4SM BR VCSH OVC007
     FM200300 03008KT 4SM BR OVC004=



000
FTUS44 KLCH 191100
TAFAEX
TAF
KAEX 191120Z 1912/2012 06005KT P6SM -RA VCTS SCT003 OVC035CB
      TEMPO 1912/1916 4SM -RA BR OVC003
     FM191600 07007KT 4SM -RA BR OVC007
     FM200000 03008KT 4SM BR VCSH OVC007
     FM200300 03007KT 4SM BR OVC004=



000
FTUS44 KLCH 191100
TAFARA
TAF
KARA 191120Z 1912/2012 01006KT P6SM -RA VCTS SCT007 OVC035CB
      TEMPO 1912/1916 4SM -RA BR OVC007
     FM191600 05004KT 4SM -RA BR OVC007
     FM200300 05005KT 4SM BR VCSH OVC007
     FM200600 03006KT 4SM BR OVC004=



000
FTUS44 KLCH 191100
TAFBPT
TAF
KBPT 191120Z 1912/2012 07011KT P6SM -RA VCTS SCT007 OVC035CB
      TEMPO 1912/1916 4SM -RA BR OVC007
     FM191600 05007KT 4SM -RA BR OVC007
     FM192200 02007KT 4SM BR VCSH OVC007
     FM200100 01010KT 4SM BR OVC004=



000
FTUS44 KLCH 191100
TAFLCH
TAF
KLCH 191120Z 1912/2012 06009KT P6SM -RA VCTS SCT007 OVC035CB
      TEMPO 1912/1916 4SM -RA BR OVC007
     FM191600 07007KT 4SM -RA BR OVC007
     FM200000 03007KT 4SM BR VCSH OVC007
     FM200300 03008KT 4SM BR OVC004=



000
FTUS44 KLCH 191100
TAFLFT
TAF
KLFT 191120Z 1912/2012 01006KT P6SM -RA VCTS SCT007 OVC035CB
      TEMPO 1912/1916 4SM -RA BR OVC007
     FM191600 05004KT 4SM -RA BR OVC007
     FM200300 05005KT 4SM BR VCSH OVC007
     FM200600 03006KT 4SM BR OVC004=



000
FTUS44 KLCH 190800 AAA
TAFBPT
TAF AMD
KBPT 190804Z 1908/2006 02011KT 3SM RA BR VCTS OVC007CB
     FM191600 02008KT 4SM -RA BR OVC007
     FM200100 02010KT 2SM BR OVC004=



000
FTUS44 KLCH 190800 AAA
TAFLCH
TAF AMD
KLCH 190803Z 1908/2006 02008KT 5SM -RA BR VCTS OVC007CB
     FM191700 05007KT 5SM -RA BR OVC007
     FM200300 03010KT 2SM BR OVC004=



000
FTUS44 KLCH 190700 AAA
TAFARA
TAF AMD
KARA 190706Z 1907/2006 08006KT P6SM VCSH OVC009
     FM190900 07006KT 4SM -RA BR VCTS OVC009CB
     FM192000 04008KT 5SM -RA BR OVC007=



000
FTUS44 KLCH 190700 AAB
TAFLFT
TAF AMD
KLFT 190705Z 1907/2006 05007KT 2SM BR VCSH OVC005
     FM191000 04006KT 4SM -RA BR VCTS OVC009CB
     FM192000 03008KT 5SM -RA BR OVC007=



000
FTUS44 KLCH 190700 AAB
TAFAEX
TAF AMD
KAEX 190704Z 1907/2006 05005KT 2SM BR VCSH OVC003
     FM191000 03006KT 4SM -RA BR VCTS OVC004CB
     FM191800 03007KT 5SM -RA BR OVC007
     FM200100 02008KT 2SM BR OVC004=



000
FTUS44 KLCH 190600 AAA
TAFAEX
TAF AMD
KAEX 190627Z 1906/2006 05005KT 3SM BR VCSH OVC003
     FM191000 03006KT 4SM -RA BR VCTS OVC004CB
     FM191800 03007KT 5SM -RA BR OVC007
     FM200100 02008KT 2SM BR OVC004=



000
FTUS44 KLCH 190600 AAA
TAFLFT
TAF AMD
KLFT 190626Z 1906/2006 05007KT 3SM BR VCSH SCT006 OVC012
     FM191000 04006KT 4SM -RA BR VCTS OVC009CB
     FM192000 03008KT 5SM -RA BR OVC007=



000
FTUS44 KLCH 190500
TAFARA
TAF
KARA 190521Z 1906/2006 08006KT 6SM BR VCSH OVC012
     FM190900 07006KT 4SM -RA BR VCTS OVC009CB
     FM192000 04008KT 5SM -RA BR OVC007=



000
FTUS44 KLCH 190500
TAFLFT
TAF
KLFT 190521Z 1906/2006 05005KT 6SM BR VCSH OVC012
     FM191000 04006KT 4SM -RA BR VCTS OVC009CB
     FM192000 03008KT 5SM -RA BR OVC007=



000
FTUS44 KLCH 190500
TAFLCH
TAF
KLCH 190521Z 1906/2006 06007KT P6SM VCSH OVC011
     FM190900 06006KT 4SM RA BR VCTS OVC007CB
     FM191700 05007KT 5SM -RA BR OVC007
     FM200300 03010KT 2SM BR OVC004=



000
FTUS44 KLCH 190500
TAFBPT
TAF
KBPT 190521Z 1906/2006 06008KT 5SM BR VCSH OVC007
     FM190700 06007KT 3SM RA BR VCTS OVC007CB
     FM191600 02008KT 4SM -RA BR OVC007
     FM200100 02010KT 2SM BR OVC004=



000
FTUS44 KLCH 190500
TAFAEX
TAF
KAEX 190521Z 1906/2006 05005KT 5SM BR VCSH OVC006
     FM191000 03006KT 4SM -RA BR VCTS OVC004CB
     FM191800 03007KT 5SM -RA BR OVC007
     FM200100 02008KT 2SM BR OVC004=



000
FTUS44 KLCH 182300
TAFARA
TAF
KARA 182321Z 1900/1924 06006KT P6SM VCSH OVC012
     FM190300 08005KT 5SM BR VCSH OVC011
     FM191000 09006KT 4SM -RA BR OVC005
     FM191800 05008KT 3SM RA BR VCTS OVC007CB=



000
FTUS44 KLCH 182300
TAFLFT
TAF
KLFT 182321Z 1900/1924 04006KT P6SM VCSH OVC012
     FM190300 07005KT 5SM BR VCSH OVC011
     FM191100 04006KT 5SM -RA BR OVC005
     FM191800 03008KT 3SM RA BR VCTS OVC007CB=



000
FTUS44 KLCH 182300
TAFAEX
TAF
KAEX 182321Z 1900/1924 06006KT P6SM OVC008
     FM190600 05005KT 5SM BR VCSH OVC005
     FM191000 04005KT 4SM -RA BR OVC004
     FM191500 03007KT 3SM RA BR OVC006=



000
FTUS44 KLCH 182300
TAFBPT
TAF
KBPT 182321Z 1900/1924 03007KT 5SM BR VCSH OVC006
     FM190700 06007KT 3SM RA BR VCTS OVC004CB
     FM191700 01008KT 2SM -RA BR OVC005=



000
FTUS44 KLCH 182300
TAFLCH
TAF
KLCH 182321Z 1900/1924 05006KT P6SM VCSH OVC012
     FM190300 07005KT 5SM BR VCSH OVC007
     FM191000 06006KT 5SM -RA BR OVC005
     FM191500 04010KT 3SM RA BR VCTS OVC007CB=



000
FTUS44 KLCH 182100 AAA
TAFLCH
TAF AMD
KLCH 182112Z 1821/1918 06004KT P6SM VCSH OVC012
     FM190200 06004KT 6SM BR VCSH OVC009
     FM191000 06007KT 5SM -RA OVC006
      TEMPO 1911/1914 2SM RA SCT006 OVC015
     FM191400 04008KT 3SM RA OVC005=



000
FTUS44 KLCH 181700
TAFARA
TAF
KARA 181735Z 1818/1918 12006KT P6SM VCSH SCT040 OVC100
     FM182000 10006KT P6SM VCSH SCT012 OVC040
      TEMPO 1820/1824 BKN012 OVC040
     FM190200 06004KT 6SM BR VCSH OVC009
     FM191000 06007KT 5SM -RA OVC006
      TEMPO 1911/1914 2SM RA SCT006 OVC015
     FM191400 04008KT 3SM RA OVC005=



000
FTUS44 KLCH 181700
TAFLCH
TAF
KLCH 181735Z 1818/1918 10004KT P6SM VCSH SCT012 OVC040
      TEMPO 1818/1820 BKN012 OVC040
     FM190200 06004KT 6SM BR VCSH OVC009
     FM191000 06007KT 5SM -RA OVC006
      TEMPO 1911/1914 2SM RA SCT006 OVC015
     FM191400 04008KT 3SM RA OVC005=



000
FTUS44 KLCH 181700
TAFBPT
TAF
KBPT 181735Z 1818/1918 03006KT P6SM VCSH OVC005
     FM182000 07006KT P6SM VCSH SCT009 OVC040
      TEMPO 1820/1824 BKN009 OVC040
     FM190000 06004KT 6SM BR VCSH OVC008
     FM190800 06007KT 5SM -RA OVC006
      TEMPO 1910/1913 2SM RA SCT006 OVC015
     FM191300 04008KT 3SM RA OVC005=



000
FTUS44 KLCH 181700
TAFAEX
TAF
KAEX 181735Z 1818/1918 09004KT P6SM BKN005 OVC025
     FM182100 07004KT P6SM OVC008
     FM190100 05004KT 6SM BR OVC005
     FM190700 04006KT 6SM BR VCSH OVC004
      TEMPO 1911/1914 3SM SHRA
     FM191400 10007KT 3SM RA OVC004=



000
FTUS44 KLCH 181700
TAFLFT
TAF
KLFT 181735Z 1818/1918 12003KT P6SM SCT040 OVC100
     FM182000 10004KT P6SM VCSH SCT012 OVC040
      TEMPO 1820/1824 BKN012 OVC040
     FM190200 06004KT 6SM BR VCSH OVC009
     FM191000 06007KT 5SM -RA OVC006
      TEMPO 1911/1914 2SM RA SCT006 OVC015
     FM191400 04008KT 3SM RA OVC005=



000
FTUS44 KLCH 181500 AAA
TAFARA
TAF AMD
KARA 181512Z 1815/1912 09004KT P6SM VCSH SCT025 BKN050
     FM181700 12004KT P6SM VCSH SCT015 OVC025
     FM181900 14006KT P6SM VCSH OVC015
      TEMPO 1820/1824 2SM -RA BR OVC007
     FM190000 05004KT P6SM VCSH OVC007 PROB30 1902/1908 2SM -RA BR
     FM190800 08005KT 2SM -RA BR VCTS OVC007CB=



000
FTUS44 KLCH 181500 AAA
TAFBPT
TAF AMD
KBPT 181511Z 1815/1912 09007KT P6SM VCSH OVC005
      TEMPO 1816/1817 SCT005 BKN025
     FM181700 09006KT P6SM VCSH OVC015
      TEMPO 1817/1821 2SM -RA BR OVC007
     FM182100 07005KT P6SM VCSH OVC007 PROB30 1902/1908 2SM -RA BR
     FM190800 10007KT 2SM -RA BR VCTS OVC007CB=



000
FTUS44 KLCH 181500 AAA
TAFLFT
TAF AMD
KLFT 181511Z 1815/1912 09004KT P6SM VCSH SCT025 BKN050
     FM181700 12004KT P6SM VCSH SCT015 OVC025
     FM181900 14006KT P6SM VCSH OVC015
      TEMPO 1820/1824 2SM -RA BR OVC007
     FM190000 05004KT P6SM VCSH OVC007 PROB30 1903/1909 2SM -RA BR
     FM190900 08005KT 2SM -RA BR VCTS OVC007CB=



    US Dept of Commerce
    National Oceanic and Atmospheric Administration
    National Weather Service
    1325 East West Highway
    Silver Spring, MD 20910
    Page Author: NWS Internet Services Team
Disclaimer
Information Quality
Credits
Glossary
Privacy Policy
Freedom of Information Act (FOIA)
About Us
Career Opportunities